Time;durP1;ratioP1;P1;durP2;ratioP2;P2;SDS_P1;SDS_P2;PMS_P1;PMS_P2;Temp;Humidity;BMP_temperature;BMP_pressure;BME280_temperature;BME280_humidity;BME280_pressure;Samples;Min_cycle;Max_cycle;Signal;HPM_P1;HPM_P2
2023/12/03 00:00:42;;;;;;;24.55;7.97;;;1.70;99.90;;;;;;4994624;28;20019;-75
2023/12/03 00:03:10;;;;;;;29.02;8.80;;;1.80;99.90;;;;;;4993416;28;20414;-75
2023/12/03 00:05:37;;;;;;;26.48;8.85;;;1.80;99.90;;;;;;4993318;28;20061;-75
2023/12/03 00:08:03;;;;;;;26.40;8.27;;;1.80;99.90;;;;;;5009296;28;20034;-75
2023/12/03 00:10:29;;;;;;;27.90;8.32;;;1.80;99.90;;;;;;4994671;28;20114;-75
2023/12/03 00:12:55;;;;;;;25.58;8.27;;;1.80;99.90;;;;;;4993335;28;20525;-76
2023/12/03 00:15:22;;;;;;;25.55;8.45;;;1.70;99.90;;;;;;4994670;28;20062;-75
2023/12/03 00:17:47;;;;;;;30.85;8.57;;;1.70;99.90;;;;;;5011543;28;20124;-76
2023/12/03 00:20:13;;;;;;;26.65;8.63;;;1.80;99.90;;;;;;4998696;28;20528;-76
2023/12/03 00:22:39;;;;;;;30.15;8.07;;;1.80;99.90;;;;;;4998705;28;20394;-76
2023/12/03 00:25:05;;;;;;;24.38;7.82;;;1.80;99.90;;;;;;4998588;28;20022;-76
2023/12/03 00:27:30;;;;;;;26.05;8.20;;;1.80;99.90;;;;;;4998546;28;20019;-76
2023/12/03 00:29:57;;;;;;;27.77;8.10;;;1.80;99.90;;;;;;4997213;28;20378;-76
2023/12/03 00:32:22;;;;;;;31.13;8.52;;;1.80;99.90;;;;;;4997196;28;20027;-76
2023/12/03 00:34:48;;;;;;;26.60;9.50;;;1.80;99.90;;;;;;4998537;28;20031;-76
2023/12/03 00:37:13;;;;;;;23.95;8.55;;;1.80;99.90;;;;;;4998597;28;20078;-76
2023/12/03 00:39:39;;;;;;;29.55;8.23;;;1.90;99.90;;;;;;4998241;28;20034;-76
2023/12/03 00:42:07;;;;;;;28.17;9.90;;;1.80;99.90;;;;;;4998657;28;20030;-76
2023/12/03 00:44:33;;;;;;;31.85;7.93;;;1.90;99.90;;;;;;4997186;28;20048;-76
2023/12/03 00:47:00;;;;;;;28.15;8.88;;;;;;;;;;4996912;28;20474;-76
2023/12/03 00:49:25;;;;;;;34.83;10.80;;;1.80;99.90;;;;;;4998629;28;20026;-76
2023/12/03 00:51:51;;;;;;;31.85;9.35;;;1.80;99.90;;;;;;4998388;28;20432;-75
2023/12/03 00:54:17;;;;;;;35.72;9.90;;;1.80;99.90;;;;;;4998323;28;20026;-76
2023/12/03 00:56:42;;;;;;;31.80;10.55;;;1.80;99.90;;;;;;4997873;28;20097;-76
2023/12/03 00:59:08;;;;;;;31.58;9.07;;;1.80;99.90;;;;;;4998566;28;20018;-76
2023/12/03 01:01:33;;;;;;;27.42;9.30;;;1.80;99.90;;;;;;4998075;28;20026;-76
2023/12/03 01:03:59;;;;;;;30.13;8.57;;;1.80;99.90;;;;;;5013080;28;20482;-76
2023/12/03 01:06:24;;;;;;;33.28;10.60;;;1.80;99.90;;;;;;4998368;28;20027;-76
2023/12/03 01:08:50;;;;;;;33.58;9.55;;;1.80;99.90;;;;;;4997659;28;20031;-76
2023/12/03 01:11:15;;;;;;;28.83;9.85;;;1.80;99.90;;;;;;4998126;28;20030;-76
2023/12/03 01:13:41;;;;;;;28.00;9.25;;;1.90;99.90;;;;;;4997856;28;20026;-76
2023/12/03 01:16:17;;;;;;;32.95;10.40;;;1.90;99.90;;;;;;4997527;28;20030;-76
2023/12/03 01:18:43;;;;;;;25.70;9.75;;;1.90;99.90;;;;;;4997611;28;20582;-76
2023/12/03 01:21:09;;;;;;;26.27;9.68;;;1.90;99.90;;;;;;4997777;28;20054;-76
2023/12/03 01:23:34;;;;;;;34.47;9.05;;;1.90;99.90;;;;;;5012651;28;20058;-76
2023/12/03 01:26:00;;;;;;;28.05;8.80;;;1.90;99.90;;;;;;4997713;28;20080;-76
2023/12/03 01:28:25;;;;;;;29.63;8.95;;;1.90;99.90;;;;;;4996917;28;20029;-76
2023/12/03 01:30:51;;;;;;;29.17;9.18;;;1.90;99.90;;;;;;4996860;28;20088;-76
2023/12/03 01:33:17;;;;;;;32.80;9.98;;;1.90;99.90;;;;;;4997363;28;20026;-75
2023/12/03 01:35:42;;;;;;;33.95;11.27;;;1.90;99.90;;;;;;4995934;28;20038;-76
2023/12/03 01:38:08;;;;;;;29.45;10.50;;;2.00;99.90;;;;;;4997034;28;20030;-76
2023/12/03 01:40:33;;;;;;;28.75;10.02;;;1.90;99.90;;;;;;4996573;28;20040;-75
2023/12/03 01:42:59;;;;;;;34.17;11.18;;;2.00;99.90;;;;;;4997190;28;20018;-76
2023/12/03 01:45:25;;;;;;;32.38;9.90;;;1.90;99.90;;;;;;4996916;28;20386;-76
2023/12/03 01:47:51;;;;;;;30.33;10.82;;;1.90;99.90;;;;;;4997535;28;20080;-76
2023/12/03 01:50:18;;;;;;;30.67;10.52;;;2.00;99.90;;;;;;4996973;28;20069;-75
2023/12/03 01:52:44;;;;;;;31.50;10.23;;;2.00;99.90;;;;;;4996829;28;20025;-76
2023/12/03 01:55:17;;;;;;;34.10;11.90;;;2.00;99.90;;;;;;4997516;28;20430;-76
2023/12/03 01:57:42;;;;;;;30.67;9.90;;;2.00;99.90;;;;;;4995433;28;20054;-76
2023/12/03 02:00:09;;;;;;;30.50;9.18;;;2.00;99.90;;;;;;4995342;28;20441;-75
2023/12/03 02:02:35;;;;;;;31.40;10.07;;;2.00;99.90;;;;;;4996494;28;20030;-75
2023/12/03 02:05:00;;;;;;;30.42;10.10;;;2.00;99.90;;;;;;4997169;28;20023;-76
2023/12/03 02:07:26;;;;;;;30.20;10.80;;;2.10;99.90;;;;;;4996256;28;20026;-76
2023/12/03 02:09:52;;;;;;;26.85;10.18;;;2.10;99.90;;;;;;4996176;28;20046;-76
2023/12/03 02:12:17;;;;;;;32.28;10.40;;;2.10;99.90;;;;;;4996573;28;20081;-75
2023/12/03 02:14:43;;;;;;;32.90;10.50;;;;;;;;;;4996300;28;20034;-76
2023/12/03 02:17:09;;;;;;;30.75;10.55;;;2.20;99.90;;;;;;4996481;28;20445;-76
2023/12/03 02:19:38;;;;;;;27.42;9.95;;;2.20;99.90;;;;;;4996535;28;20035;-75
2023/12/03 02:22:03;;;;;;;35.25;10.35;;;2.20;99.90;;;;;;4995062;28;20031;-76
2023/12/03 02:24:29;;;;;;;34.80;10.85;;;2.30;99.90;;;;;;4994972;28;20034;-76
2023/12/03 02:26:54;;;;;;;32.33;10.05;;;2.20;99.90;;;;;;4996578;28;20026;-76
2023/12/03 02:29:20;;;;;;;33.20;10.55;;;2.20;99.90;;;;;;4994860;28;20474;-75
2023/12/03 02:31:45;;;;;;;28.88;10.30;;;2.20;99.90;;;;;;4996632;28;20054;-76
2023/12/03 02:34:13;;;;;;;29.48;10.32;;;2.20;99.90;;;;;;4994635;28;20055;-76
2023/12/03 02:36:39;;;;;;;26.27;9.20;;;2.20;99.90;;;;;;4994790;28;20064;-76
2023/12/03 02:39:05;;;;;;;25.83;10.32;;;2.20;99.90;;;;;;5011181;28;20034;-76
2023/12/03 02:41:31;;;;;;;28.02;9.60;;;2.20;99.90;;;;;;5010805;28;20113;-76
2023/12/03 02:43:57;;;;;;;29.67;9.63;;;2.30;99.90;;;;;;4995945;28;20019;-76
2023/12/03 02:46:22;;;;;;;29.77;9.95;;;2.30;99.90;;;;;;4996559;28;20105;-76
2023/12/03 02:48:48;;;;;;;23.38;8.77;;;2.20;99.90;;;;;;4995624;28;20058;-76
2023/12/03 02:51:14;;;;;;;26.90;9.40;;;2.20;99.90;;;;;;4995842;28;20497;-75
2023/12/03 02:53:39;;;;;;;28.63;10.10;;;2.20;99.90;;;;;;5010933;28;20026;-76
2023/12/03 02:56:06;;;;;;;29.80;9.95;;;2.30;99.90;;;;;;4996439;28;20032;-76
2023/12/03 02:58:33;;;;;;;26.17;9.38;;;2.20;99.90;;;;;;4995579;28;20035;-76
2023/12/03 03:00:58;;;;;;;29.05;10.27;;;2.20;99.90;;;;;;4995533;28;20026;-76
2023/12/03 03:03:24;;;;;;;24.90;9.27;;;2.20;99.90;;;;;;4995751;28;20034;-76
2023/12/03 03:05:49;;;;;;;30.23;9.80;;;2.20;99.90;;;;;;4994648;28;20363;-76
2023/12/03 03:08:15;;;;;;;25.90;9.85;;;2.30;99.90;;;;;;4995719;28;20452;-76
2023/12/03 03:10:40;;;;;;;30.95;10.23;;;2.20;99.90;;;;;;4994279;28;20030;-75
2023/12/03 03:13:07;;;;;;;30.42;11.38;;;2.30;99.90;;;;;;4995641;28;20057;-76
2023/12/03 03:15:33;;;;;;;28.13;11.05;;;2.20;99.90;;;;;;4995266;28;20026;-75
2023/12/03 03:17:58;;;;;;;24.50;9.82;;;2.20;99.90;;;;;;4996170;28;20378;-76
2023/12/03 03:20:24;;;;;;;29.73;11.10;;;2.20;99.90;;;;;;4994423;28;20018;-76
2023/12/03 03:22:50;;;;;;;31.73;12.73;;;2.20;99.90;;;;;;4993904;28;20023;-76
2023/12/03 03:25:16;;;;;;;32.00;11.63;;;2.20;99.90;;;;;;4994493;28;20022;-76
2023/12/03 03:27:42;;;;;;;36.40;14.02;;;2.10;99.90;;;;;;4993722;28;20445;-76
2023/12/03 03:30:08;;;;;;;32.22;13.23;;;2.10;99.90;;;;;;4994173;28;20022;-76
2023/12/03 03:32:34;;;;;;;34.15;12.40;;;2.00;99.90;;;;;;4995317;28;20034;-76
2023/12/03 03:34:59;;;;;;;33.55;12.07;;;2.00;99.90;;;;;;5010130;28;20092;-76
2023/12/03 03:37:25;;;;;;;31.48;12.55;;;1.90;99.90;;;;;;4995086;28;20109;-76
2023/12/03 03:39:51;;;;;;;30.30;12.35;;;1.90;99.90;;;;;;4995147;28;20061;-76
2023/12/03 03:42:16;;;;;;;30.20;13.10;;;1.90;99.90;;;;;;4993953;28;20019;-75
2023/12/03 03:44:42;;;;;;;29.40;11.52;;;1.90;99.90;;;;;;5009729;28;20042;-76
2023/12/03 03:47:07;;;;;;;29.75;11.85;;;1.90;99.90;;;;;;4993769;28;20042;-76
2023/12/03 03:49:33;;;;;;;24.95;11.63;;;1.80;99.90;;;;;;5009552;28;20113;-76
2023/12/03 03:51:59;;;;;;;30.08;11.52;;;1.80;99.90;;;;;;4994651;28;20023;-76
2023/12/03 03:54:25;;;;;;;24.60;11.23;;;1.80;99.90;;;;;;4993291;28;20470;-76
2023/12/03 03:56:50;;;;;;;25.25;10.88;;;1.70;99.90;;;;;;4993113;28;20011;-76
2023/12/03 03:59:16;;;;;;;21.73;10.18;;;1.60;99.90;;;;;;5009955;28;20019;-76
2023/12/03 04:01:43;;;;;;;26.27;10.60;;;1.50;99.90;;;;;;4994834;28;20019;-76
2023/12/03 04:04:09;;;;;;;21.08;10.15;;;1.40;99.90;;;;;;4994724;28;20028;-76
2023/12/03 04:06:39;;;;;;;23.75;9.88;;;1.40;99.90;;;;;;4995114;28;20027;-76
2023/12/03 04:09:06;;;;;;;21.17;9.32;;;1.30;99.90;;;;;;4994733;28;20487;-76
2023/12/03 04:11:37;;;;;;;20.83;9.07;;;1.20;99.90;;;;;;5010126;28;20014;-76
2023/12/03 04:14:03;;;;;;;24.52;9.93;;;1.20;99.90;;;;;;4995581;28;20080;-76
2023/12/03 04:16:28;;;;;;;28.52;10.57;;;1.20;99.90;;;;;;4993692;28;20030;-76
2023/12/03 04:18:54;;;;;;;23.17;9.38;;;1.10;99.90;;;;;;4994971;28;20026;-76
2023/12/03 04:21:19;;;;;;;19.52;8.05;;;1.00;99.90;;;;;;4993441;28;20030;-76
2023/12/03 04:23:45;;;;;;;19.23;8.60;;;0.90;99.90;;;;;;4994565;28;20367;-76
2023/12/03 04:26:12;;;;;;;23.88;8.60;;;0.80;99.90;;;;;;4994354;28;20079;-76
2023/12/03 04:28:41;;;;;;;22.92;9.32;;;0.70;99.90;;;;;;4994386;28;20105;-76
2023/12/03 04:31:16;;;;;;;20.50;8.70;;;0.70;99.90;;;;;;4994898;28;20032;-76
2023/12/03 04:33:42;;;;;;;23.52;9.00;;;0.60;99.90;;;;;;5009956;28;20022;-76
2023/12/03 04:36:08;;;;;;;23.45;8.68;;;0.60;99.90;;;;;;5010129;28;20057;-76
2023/12/03 04:38:33;;;;;;;19.98;8.20;;;0.50;99.90;;;;;;4993675;28;20033;-76
2023/12/03 04:40:59;;;;;;;23.70;8.68;;;0.50;99.90;;;;;;4993643;28;20432;-76
2023/12/03 04:43:24;;;;;;;22.40;8.48;;;0.40;99.90;;;;;;4994559;28;20022;-76
2023/12/03 04:45:50;;;;;;;19.40;7.68;;;0.40;99.90;;;;;;4994537;28;20077;-76
2023/12/03 04:48:15;;;;;;;21.55;9.02;;;0.40;99.90;;;;;;4994541;28;20385;-76
2023/12/03 04:50:41;;;;;;;19.20;8.00;;;0.40;99.90;;;;;;4994450;28;20026;-76
2023/12/03 04:53:07;;;;;;;21.38;8.65;;;0.30;99.90;;;;;;4994507;28;20019;-76
2023/12/03 04:55:32;;;;;;;20.42;7.65;;;0.30;99.90;;;;;;4993829;28;20027;-76
2023/12/03 04:57:58;;;;;;;26.88;9.43;;;0.30;99.90;;;;;;4994956;28;20030;-76
2023/12/03 05:00:23;;;;;;;19.83;8.27;;;0.30;99.90;;;;;;4994016;28;20528;-76
2023/12/03 05:02:49;;;;;;;22.02;8.13;;;0.30;99.90;;;;;;4994690;28;20509;-76
2023/12/03 05:05:14;;;;;;;52.47;8.73;;;0.30;99.90;;;;;;5011924;28;20030;-76
2023/12/03 05:07:40;;;;;;;23.13;8.75;;;0.20;99.90;;;;;;4996719;28;20026;-75
2023/12/03 05:10:06;;;;;;;25.20;7.78;;;0.20;99.90;;;;;;4996450;28;20169;-76
2023/12/03 05:12:32;;;;;;;23.83;8.32;;;0.30;99.90;;;;;;4996978;28;20030;-76
2023/12/03 05:14:57;;;;;;;22.13;8.50;;;0.20;99.90;;;;;;4997913;28;20034;-76
2023/12/03 05:17:23;;;;;;;23.42;8.90;;;0.30;99.90;;;;;;4997776;28;20041;-75
2023/12/03 05:19:48;;;;;;;22.52;7.80;;;0.10;99.90;;;;;;5012930;28;20030;-76
2023/12/03 05:22:14;;;;;;;19.88;7.90;;;0.10;99.90;;;;;;4998072;28;20033;-76
2023/12/03 05:24:39;;;;;;;21.75;7.82;;;0.10;99.90;;;;;;4997457;28;20014;-76
2023/12/03 05:27:05;;;;;;;21.48;8.18;;;0.00;99.90;;;;;;4996163;28;20129;-76
2023/12/03 05:29:30;;;;;;;25.58;8.07;;;0.00;99.90;;;;;;4997839;28;20097;-76
2023/12/03 05:31:56;;;;;;;23.95;8.60;;;0.00;99.90;;;;;;4996069;28;20450;-76
2023/12/03 05:34:22;;;;;;;22.48;8.05;;;-0.10;99.90;;;;;;4997184;28;20030;-76
2023/12/03 05:36:47;;;;;;;20.08;8.02;;;-0.10;99.90;;;;;;4995804;28;20038;-76
2023/12/03 05:39:13;;;;;;;22.15;8.35;;;-0.10;99.90;;;;;;4996624;28;20030;-76
2023/12/03 05:41:39;;;;;;;27.67;9.20;;;-0.10;99.90;;;;;;4997537;28;20026;-76
2023/12/03 05:44:05;;;;;;;18.45;7.50;;;-0.20;99.90;;;;;;4995893;28;20022;-76
2023/12/03 05:46:30;;;;;;;21.55;8.55;;;-0.20;99.90;;;;;;4997019;28;20101;-76
2023/12/03 05:48:56;;;;;;;19.13;7.53;;;-0.30;99.90;;;;;;4997286;28;20019;-76
2023/12/03 05:51:21;;;;;;;24.98;8.38;;;-0.30;99.90;;;;;;4996807;28;20038;-76
2023/12/03 05:53:47;;;;;;;22.48;9.07;;;-0.30;99.90;;;;;;5012021;28;20117;-76
2023/12/03 05:56:12;;;;;;;20.88;7.85;;;-0.30;99.90;;;;;;4996825;28;20077;-76
2023/12/03 05:58:38;;;;;;;25.38;8.50;;;-0.30;99.90;;;;;;4996878;28;20033;-76
2023/12/03 06:01:04;;;;;;;26.92;8.77;;;-0.30;99.90;;;;;;4997364;28;20037;-76
2023/12/03 06:03:29;;;;;;;23.83;8.68;;;-0.30;99.90;;;;;;5011797;28;20034;-76
2023/12/03 06:05:55;;;;;;;21.83;9.38;;;-0.30;99.90;;;;;;4995716;28;20037;-76
2023/12/03 06:08:20;;;;;;;26.65;8.70;;;-0.30;99.90;;;;;;4996380;28;20054;-76
2023/12/03 06:10:46;;;;;;;22.98;8.95;;;-0.40;99.90;;;;;;4996048;28;20438;-76
2023/12/03 06:13:11;;;;;;;27.92;9.73;;;-0.30;99.90;;;;;;4996328;28;20023;-76
2023/12/03 06:15:37;;;;;;;23.50;9.05;;;-0.30;99.90;;;;;;4996495;28;20029;-76
2023/12/03 06:18:02;;;;;;;22.48;9.23;;;-0.30;99.90;;;;;;4996587;28;20109;-76
2023/12/03 06:20:28;;;;;;;26.50;9.75;;;-0.30;99.90;;;;;;4996597;28;20078;-76
2023/12/03 06:22:55;;;;;;;28.98;8.98;;;-0.30;99.90;;;;;;5011537;28;20026;-76
2023/12/03 06:25:20;;;;;;;21.45;8.98;;;-0.40;99.90;;;;;;4997065;28;20021;-76
2023/12/03 06:27:46;;;;;;;24.02;8.95;;;-0.40;99.90;;;;;;5011299;28;20035;-76
2023/12/03 06:30:12;;;;;;;25.08;9.45;;;-0.40;99.90;;;;;;4996529;28;20027;-76
2023/12/03 06:32:37;;;;;;;28.50;10.30;;;-0.40;99.90;;;;;;4996667;28;20033;-76
2023/12/03 06:35:04;;;;;;;24.73;9.15;;;-0.50;99.90;;;;;;4995143;28;20402;-76
2023/12/03 06:37:30;;;;;;;30.25;9.50;;;-0.40;99.90;;;;;;4994810;28;20069;-76
2023/12/03 06:39:55;;;;;;;27.50;10.20;;;-0.50;99.90;;;;;;4994587;28;20022;-76
2023/12/03 06:42:21;;;;;;;23.85;8.98;;;-0.60;99.90;;;;;;4996094;28;20072;-76
2023/12/03 06:44:46;;;;;;;24.33;8.70;;;-0.60;99.90;;;;;;4994421;28;20025;-76
2023/12/03 06:47:12;;;;;;;25.30;9.40;;;-0.60;99.90;;;;;;4996616;28;20042;-76
2023/12/03 06:49:37;;;;;;;29.02;10.32;;;-0.60;99.90;;;;;;4995897;28;20077;-76
2023/12/03 06:52:03;;;;;;;28.13;10.73;;;-0.60;99.90;;;;;;4996090;28;20033;-76
2023/12/03 06:54:29;;;;;;;24.92;9.48;;;-0.60;99.90;;;;;;4995924;28;20038;-75
2023/12/03 06:56:54;;;;;;;31.70;9.32;;;-0.60;99.90;;;;;;4994904;28;20049;-75
2023/12/03 06:59:20;;;;;;;28.63;9.65;;;-0.60;99.90;;;;;;4996578;28;20022;-75
2023/12/03 07:01:45;;;;;;;26.73;9.75;;;-0.60;99.90;;;;;;4995704;28;20026;-75
2023/12/03 07:04:11;;;;;;;31.40;9.25;;;-0.60;99.90;;;;;;4994543;28;20026;-76
2023/12/03 07:06:36;;;;;;;31.30;9.63;;;-0.60;99.90;;;;;;4995787;28;20390;-76
2023/12/03 07:09:02;;;;;;;31.88;10.40;;;-0.60;99.90;;;;;;4995630;28;20037;-76
2023/12/03 07:11:29;;;;;;;33.85;11.00;;;-0.60;99.90;;;;;;4994673;28;20027;-77
2023/12/03 07:13:55;;;;;;;26.00;9.35;;;;;;;;;;4994351;28;20018;-76
2023/12/03 07:16:22;;;;;;;37.88;10.65;;;-0.60;99.90;;;;;;5010178;28;20029;-75
2023/12/03 07:18:48;;;;;;;34.00;11.32;;;-0.60;99.90;;;;;;4996158;28;20029;-77
2023/12/03 07:21:14;;;;;;;35.50;10.68;;;-0.60;99.90;;;;;;4994593;28;20030;-77
2023/12/03 07:23:42;;;;;;;28.67;10.27;;;-0.30;99.90;;;;;;4994473;28;20028;-76
2023/12/03 07:26:09;;;;;;;26.08;8.25;;;-0.60;99.90;;;;;;5010904;28;20022;-76
2023/12/03 07:28:35;;;;;;;29.60;10.10;;;-0.60;99.90;;;;;;4995022;28;20068;-77
2023/12/03 07:31:01;;;;;;;33.40;11.00;;;-0.80;99.90;;;;;;4995903;28;20422;-77
2023/12/03 07:33:27;;;;;;;34.30;10.73;;;-0.70;99.90;;;;;;4995237;28;20034;-77
2023/12/03 07:35:52;;;;;;;34.95;11.35;;;-0.70;99.90;;;;;;4995547;28;20050;-77
2023/12/03 07:38:18;;;;;;;33.58;10.90;;;-0.70;99.90;;;;;;4994228;28;20034;-76
2023/12/03 07:40:44;;;;;;;33.28;10.77;;;-0.70;99.90;;;;;;4995352;28;20028;-77
2023/12/03 07:43:09;;;;;;;38.38;11.70;;;-0.70;99.90;;;;;;4995049;28;20057;-76
2023/12/03 07:45:35;;;;;;;41.40;11.27;;;-0.70;99.90;;;;;;4995495;28;20054;-77
2023/12/03 07:48:00;;;;;;;31.73;12.07;;;-0.70;99.90;;;;;;4994879;28;20072;-77
2023/12/03 07:50:26;;;;;;;40.00;13.77;;;-0.70;99.90;;;;;;4993776;28;20029;-77
2023/12/03 07:52:51;;;;;;;38.40;11.93;;;-0.70;99.90;;;;;;4993784;28;20429;-77
2023/12/03 07:55:17;;;;;;;32.58;10.80;;;-0.70;99.90;;;;;;4994943;28;20439;-77
2023/12/03 07:57:43;;;;;;;35.83;11.82;;;-0.70;99.90;;;;;;4994847;28;20088;-77
2023/12/03 08:00:08;;;;;;;38.53;12.95;;;-0.70;99.90;;;;;;4995171;28;20034;-77
2023/12/03 08:02:34;;;;;;;34.53;11.80;;;-0.60;99.90;;;;;;4994783;28;20416;-77
2023/12/03 08:05:00;;;;;;;40.67;12.20;;;-0.60;99.90;;;;;;4994313;28;20019;-76
2023/12/03 08:07:25;;;;;;;35.47;12.30;;;-0.50;99.90;;;;;;5010214;28;20014;-76
2023/12/03 08:09:51;;;;;;;32.78;12.30;;;-0.50;99.90;;;;;;4994492;28;20120;-76
2023/12/03 08:12:17;;;;;;;34.78;12.32;;;-0.50;99.90;;;;;;4993288;28;20025;-76
2023/12/03 08:14:43;;;;;;;37.80;13.05;;;-0.40;99.90;;;;;;4994885;28;20101;-75
2023/12/03 08:17:12;;;;;;;40.25;13.13;;;-0.50;99.90;;;;;;4994888;28;20023;-75
2023/12/03 08:19:38;;;;;;;38.85;11.50;;;-0.40;99.90;;;;;;4995510;28;20470;-75
2023/12/03 08:22:04;;;;;;;34.95;12.35;;;-0.30;99.90;;;;;;5009542;28;20103;-75
2023/12/03 08:24:34;;;;;;;36.92;11.80;;;-0.30;99.90;;;;;;4994580;28;20031;-75
2023/12/03 08:27:00;;;;;;;35.70;11.80;;;0.90;99.90;;;;;;4994957;28;20544;-75
2023/12/03 08:29:26;;;;;;;33.85;11.05;;;-0.20;99.90;;;;;;4994455;28;20015;-75
2023/12/03 08:31:52;;;;;;;35.80;11.57;;;-0.10;99.90;;;;;;4994794;28;20025;-75
2023/12/03 08:34:17;;;;;;;34.75;10.40;;;-0.10;99.90;;;;;;4994652;28;20038;-75
2023/12/03 08:36:43;;;;;;;40.28;12.02;;;0.00;99.90;;;;;;4993275;28;20449;-75
2023/12/03 08:39:09;;;;;;;37.20;12.00;;;0.00;99.90;;;;;;4996791;28;20105;-76
2023/12/03 08:41:36;;;;;;;35.33;11.27;;;0.00;99.90;;;;;;4998314;28;20033;-76
2023/12/03 08:44:02;;;;;;;34.67;10.90;;;0.10;99.90;;;;;;4998546;28;20442;-75
2023/12/03 08:46:29;;;;;;;36.70;11.00;;;0.10;99.90;;;;;;4998901;28;20466;-75
2023/12/03 08:48:55;;;;;;;39.10;12.23;;;0.10;99.90;;;;;;4998711;28;20394;-75
2023/12/03 08:51:21;;;;;;;32.25;10.95;;;0.10;99.90;;;;;;4998787;28;20459;-77
2023/12/03 08:53:47;;;;;;;35.28;10.95;;;0.20;99.90;;;;;;4998414;28;20109;-76
2023/12/03 08:56:13;;;;;;;34.72;11.02;;;1.10;99.90;;;;;;4998306;28;20037;-75
2023/12/03 08:58:40;;;;;;;36.25;11.27;;;0.30;99.90;;;;;;4998507;28;20026;-75
2023/12/03 09:01:07;;;;;;;38.33;11.90;;;0.30;99.90;;;;;;4997685;28;20398;-75
2023/12/03 09:03:33;;;;;;;39.88;10.95;;;0.30;99.90;;;;;;5013195;28;20145;-75
2023/12/03 09:05:58;;;;;;;31.38;10.55;;;0.30;99.90;;;;;;4998276;28;20125;-75
2023/12/03 09:08:24;;;;;;;32.78;9.88;;;0.40;99.90;;;;;;4996962;28;20023;-75
2023/12/03 09:10:49;;;;;;;32.60;10.93;;;0.50;99.90;;;;;;4997800;28;20038;-75
2023/12/03 09:13:15;;;;;;;28.80;10.00;;;0.40;99.90;;;;;;5002947;28;20033;-75
2023/12/03 09:15:41;;;;;;;36.70;9.80;;;0.50;99.90;;;;;;5017186;28;20026;-75
2023/12/03 09:18:06;;;;;;;35.63;11.48;;;0.50;99.90;;;;;;5012172;28;20037;-75
2023/12/03 09:20:32;;;;;;;34.65;10.82;;;0.50;99.90;;;;;;5015903;28;20034;-75
2023/12/03 09:22:58;;;;;;;33.85;11.23;;;0.60;99.90;;;;;;5014866;28;20014;-75
2023/12/03 09:25:23;;;;;;;28.95;10.20;;;0.60;99.90;;;;;;5017315;28;20041;-74
2023/12/03 09:27:49;;;;;;;36.55;10.50;;;0.70;99.90;;;;;;5017392;28;20029;-75
2023/12/03 09:30:15;;;;;;;27.92;9.50;;;0.70;99.90;;;;;;5016398;28;20022;-75
2023/12/03 09:32:40;;;;;;;29.42;9.90;;;0.70;99.90;;;;;;5017417;28;20385;-75
2023/12/03 09:35:06;;;;;;;34.95;11.10;;;0.80;99.90;;;;;;5016495;28;20182;-74
2023/12/03 09:37:32;;;;;;;33.63;11.20;;;0.80;99.90;;;;;;5017035;28;20410;-74
2023/12/03 09:39:57;;;;;;;29.60;10.13;;;0.80;99.90;;;;;;5016758;28;20159;-74
2023/12/03 09:42:26;;;;;;;34.22;10.48;;;0.80;99.90;;;;;;5015543;28;20033;-75
2023/12/03 09:45:01;;;;;;;27.75;10.27;;;0.80;99.90;;;;;;5015625;28;20108;-75
2023/12/03 09:47:28;;;;;;;26.60;8.02;;;;;;;;;;5017004;28;20018;-75
2023/12/03 09:49:57;;;;;;;30.85;10.52;;;0.90;99.90;;;;;;5016504;28;20037;-75
2023/12/03 09:52:25;;;;;;;42.45;12.73;;;0.90;99.90;;;;;;5017027;28;20397;-75
2023/12/03 09:54:54;;;;;;;38.47;11.15;;;1.60;99.90;;;;;;5017153;28;20539;-75
2023/12/03 09:57:22;;;;;;;31.60;9.73;;;1.10;99.90;;;;;;5015559;28;20049;-75
2023/12/03 09:59:49;;;;;;;24.88;8.10;;;1.20;99.90;;;;;;5017334;28;20014;-75
2023/12/03 10:02:16;;;;;;;24.10;8.02;;;1.30;99.90;;;;;;5016611;28;20096;-75
2023/12/03 10:04:43;;;;;;;31.08;10.32;;;1.40;99.90;;;;;;5016833;28;20014;-74
2023/12/03 10:07:09;;;;;;;24.48;8.93;;;1.50;99.90;;;;;;5016820;28;20018;-74
2023/12/03 10:09:36;;;;;;;34.78;9.48;;;1.60;99.90;;;;;;5015490;28;20033;-75
2023/12/03 10:12:05;;;;;;;25.75;8.40;;;1.80;99.90;;;;;;5016320;28;20489;-75
2023/12/03 10:14:31;;;;;;;25.80;8.30;;;1.80;99.90;;;;;;5015918;28;20026;-75
2023/12/03 10:16:56;;;;;;;25.23;7.82;;;1.90;99.90;;;;;;5016789;28;20501;-75
2023/12/03 10:19:26;;;;;;;22.88;6.90;;;1.90;99.90;;;;;;5016547;28;20026;-76
2023/12/03 10:21:53;;;;;;;27.55;8.52;;;2.00;99.90;;;;;;5015172;28;20018;-75
2023/12/03 10:24:19;;;;;;;24.23;7.22;;;2.00;99.90;;;;;;5016032;28;20409;-76
2023/12/03 10:27:04;;;;;;;33.03;8.25;;;2.00;99.90;;;;;;5014710;28;20497;-76
2023/12/03 10:29:30;;;;;;;30.05;8.93;;;2.10;99.90;;;;;;5015334;28;20112;-76
2023/12/03 10:31:57;;;;;;;27.88;8.60;;;2.10;99.90;;;;;;5016584;28;20100;-75
2023/12/03 10:34:24;;;;;;;29.15;8.45;;;2.10;99.90;;;;;;5016612;28;20034;-75
2023/12/03 10:36:50;;;;;;;25.88;7.32;;;2.10;99.90;;;;;;5014986;28;20037;-75
2023/12/03 10:39:19;;;;;;;19.77;6.85;;;2.10;99.90;;;;;;5014173;28;20026;-75
2023/12/03 10:41:46;;;;;;;;;;;2.20;99.90;;;;;;5015156;28;20026;-75
2023/12/03 10:44:23;;;;;;;22.92;6.75;;;2.10;99.90;;;;;;5014664;28;19916;-75
2023/12/03 10:46:52;;;;;;;26.38;6.82;;;2.10;99.90;;;;;;5015415;28;20036;-75
2023/12/03 10:49:18;;;;;;;;;;;2.00;99.90;;;;;;5016446;28;20084;-75
2023/12/03 10:51:44;;;;;;;24.92;6.90;;;2.10;99.90;;;;;;5012618;28;19917;-75
2023/12/03 10:54:13;;;;;;;22.70;7.53;;;2.00;99.90;;;;;;5016548;28;20461;-75
2023/12/03 10:56:40;;;;;;;18.60;6.57;;;2.10;99.90;;;;;;5016140;28;20370;-76
2023/12/03 10:59:10;;;;;;;18.63;5.65;;;2.10;99.90;;;;;;5015227;28;20076;-76
2023/12/03 11:01:40;;;;;;;23.23;7.80;;;2.30;99.90;;;;;;5013153;28;20048;-75
2023/12/03 11:04:14;;;;;;;19.65;6.65;;;2.30;99.90;;;;;;5015988;28;20026;-76
2023/12/03 11:06:40;;;;;;;21.50;5.88;;;2.50;99.90;;;;;;5015180;28;20029;-76
2023/12/03 11:09:09;;;;;;;17.73;5.85;;;2.50;99.90;;;;;;5014972;28;20033;-75
2023/12/03 11:11:37;;;;;;;26.52;7.10;;;2.70;99.90;;;;;;5015914;28;20029;-76
2023/12/03 11:14:02;;;;;;;19.80;5.50;;;2.80;99.90;;;;;;5013963;28;20104;-75
2023/12/03 11:16:41;;;;;;;19.95;6.07;;;2.80;99.90;;;;;;5015207;28;20033;-75
2023/12/03 11:19:12;;;;;;;14.88;5.13;;;2.90;99.90;;;;;;5015102;28;20022;-76
2023/12/03 11:22:02;;;;;;;20.27;6.00;;;2.90;99.90;;;;;;5015016;28;20029;-75
2023/12/03 11:24:33;;;;;;;14.18;4.93;;;2.80;99.90;;;;;;5015346;28;20026;-75
2023/12/03 11:26:59;;;;;;;18.67;5.50;;;2.70;99.90;;;;;;5015035;28;20418;-75
2023/12/03 11:29:53;;;;;;;19.27;5.40;;;2.70;99.90;;;;;;5014971;28;20022;-75
2023/12/03 11:32:20;;;;;;;15.00;5.90;;;2.60;99.90;;;;;;5013457;28;20017;-75
2023/12/03 11:35:16;;;;;;;16.85;5.50;;;2.50;99.90;;;;;;5013596;28;20608;-76
2023/12/03 11:37:45;;;;;;;19.52;5.82;;;2.50;99.90;;;;;;5002422;28;20034;-76
2023/12/03 11:40:16;;;;;;;20.33;5.78;;;2.50;99.90;;;;;;5014696;28;20389;-76
2023/12/03 11:42:45;;;;;;;15.35;4.60;;;2.50;99.90;;;;;;5014743;28;20053;-77
2023/12/03 11:45:19;;;;;;;19.55;6.22;;;2.40;99.90;;;;;;5013878;28;20481;-78
2023/12/03 11:48:06;;;;;;;13.07;5.10;;;2.40;99.90;;;;;;5013270;28;20022;-78
2023/12/03 11:50:36;;;;;;;17.92;5.63;;;2.30;99.90;;;;;;5013554;28;20022;-78
2023/12/03 11:53:04;;;;;;;17.25;5.65;;;2.30;99.90;;;;;;5014979;28;20041;-78
2023/12/03 11:55:34;;;;;;;23.13;6.13;;;2.30;99.90;;;;;;5014581;28;20021;-78
2023/12/03 11:58:04;;;;;;;18.30;5.63;;;2.30;99.90;;;;;;5013250;28;20022;-74
2023/12/03 12:00:30;;;;;;;17.83;4.75;;;2.30;99.90;;;;;;5014828;28;20048;-76
2023/12/03 12:02:56;;;;;;;17.10;5.97;;;2.30;99.90;;;;;;5014268;28;20052;-76
2023/12/03 12:05:22;;;;;;;21.00;6.05;;;2.30;99.90;;;;;;5014137;28;20010;-76
2023/12/03 12:07:58;;;;;;;19.95;5.38;;;2.40;99.90;;;;;;5014208;28;20022;-76
2023/12/03 12:10:25;;;;;;;16.80;5.40;;;2.40;99.90;;;;;;5013986;28;20517;-76
2023/12/03 12:12:51;;;;;;;15.73;6.00;;;2.40;99.90;;;;;;5012527;28;20032;-76
2023/12/03 12:15:17;;;;;;;21.45;5.88;;;2.50;99.90;;;;;;5014334;28;20029;-76
2023/12/03 12:17:43;;;;;;;18.00;5.32;;;2.60;99.90;;;;;;5014149;28;20018;-76
2023/12/03 12:20:12;;;;;;;18.00;6.10;;;2.70;99.90;;;;;;5013909;28;20057;-76
2023/12/03 12:22:38;;;;;;;18.38;6.35;;;2.80;99.90;;;;;;5012929;28;20497;-76
2023/12/03 12:25:06;;;;;;;17.23;6.07;;;2.80;99.90;;;;;;5012694;28;20018;-77
2023/12/03 12:27:32;;;;;;;21.77;7.10;;;2.90;99.90;;;;;;5013770;28;20026;-76
2023/12/03 12:29:58;;;;;;;18.80;6.00;;;3.00;99.90;;;;;;5013861;28;20068;-76
2023/12/03 12:32:24;;;;;;;16.90;5.70;;;3.00;99.90;;;;;;5012759;28;20034;-76
2023/12/03 12:34:49;;;;;;;17.48;6.13;;;3.10;99.90;;;;;;5012969;28;20025;-75
2023/12/03 12:37:15;;;;;;;15.05;4.90;;;3.20;99.90;;;;;;5012453;28;20034;-75
2023/12/03 12:39:40;;;;;;;18.33;5.63;;;3.40;99.90;;;;;;5013980;28;20382;-73